Shijiazhuang, China
Current Conditions -  °F | °C
As of 4:00 AM on Friday 28 Nov 2014 (Local Time) from ZBSJ Reporting Station
Haze Haze  
Wind Chill: 30°   Ceiling: 4600
Heat Index: 30°   Visibility: 1.8mi
Dew Point: 30°   Wind: 2mph
Humidity: 100%   Direction: 70°ENE
Pressure: 30.18"   Gusts: NA
Location:  38.05°N, 114.48°E
Report Text: ZBSJ 272000Z 07001MPS 3000 BR OVC046 M01/M01 Q1022 NOSIG
Loading
Personal Weather Stations






























Interactive Weather Map New forecast layout! Learn more

10-Day Weather Forecast

Advertisements
Track Severe Weather on mobile